sensor_id;sensor_type;location;lat;lon;timestamp;P1;durP1;ratioP1;P2;durP2;ratioP2
48789;SDS011;41718;51.980;5.734;2023-04-25T00:03:24;9.57;;;4.40;;
48789;SDS011;41718;51.980;5.734;2023-04-25T00:08:26;17.55;;;3.95;;
48789;SDS011;41718;51.980;5.734;2023-04-25T00:13:27;7.22;;;3.20;;
48789;SDS011;41718;51.980;5.734;2023-04-25T00:18:29;9.20;;;3.13;;
48789;SDS011;41718;51.980;5.734;2023-04-25T00:23:31;13.77;;;3.50;;
48789;SDS011;41718;51.980;5.734;2023-04-25T00:28:32;6.82;;;3.10;;
48789;SDS011;41718;51.980;5.734;2023-04-25T00:33:34;9.52;;;3.58;;
48789;SDS011;41718;51.980;5.734;2023-04-25T00:38:36;6.15;;;2.55;;
48789;SDS011;41718;51.980;5.734;2023-04-25T00:43:39;8.20;;;2.78;;
48789;SDS011;41718;51.980;5.734;2023-04-25T00:48:41;6.70;;;2.88;;
48789;SDS011;41718;51.980;5.734;2023-04-25T00:53:43;15.02;;;3.67;;
48789;SDS011;41718;51.980;5.734;2023-04-25T00:58:46;17.23;;;3.80;;
48789;SDS011;41718;51.980;5.734;2023-04-25T01:03:47;7.22;;;3.40;;
48789;SDS011;41718;51.980;5.734;2023-04-25T01:08:51;11.52;;;4.43;;
48789;SDS011;41718;51.980;5.734;2023-04-25T01:13:53;7.88;;;3.25;;
48789;SDS011;41718;51.980;5.734;2023-04-25T01:18:54;12.65;;;4.72;;
48789;SDS011;41718;51.980;5.734;2023-04-25T01:23:56;14.73;;;4.50;;
48789;SDS011;41718;51.980;5.734;2023-04-25T01:28:58;11.43;;;4.28;;
48789;SDS011;41718;51.980;5.734;2023-04-25T01:34:00;10.70;;;5.15;;
48789;SDS011;41718;51.980;5.734;2023-04-25T01:39:02;5.72;;;3.55;;
48789;SDS011;41718;51.980;5.734;2023-04-25T01:44:04;13.02;;;4.22;;
48789;SDS011;41718;51.980;5.734;2023-04-25T01:49:05;13.98;;;4.00;;
48789;SDS011;41718;51.980;5.734;2023-04-25T01:54:07;10.73;;;4.47;;
48789;SDS011;41718;51.980;5.734;2023-04-25T01:59:09;12.02;;;4.07;;
48789;SDS011;41718;51.980;5.734;2023-04-25T02:04:12;9.23;;;4.57;;
48789;SDS011;41718;51.980;5.734;2023-04-25T02:09:14;12.27;;;4.00;;
48789;SDS011;41718;51.980;5.734;2023-04-25T02:14:15;8.40;;;3.15;;
48789;SDS011;41718;51.980;5.734;2023-04-25T02:19:17;16.55;;;5.38;;
48789;SDS011;41718;51.980;5.734;2023-04-25T02:24:18;10.00;;;3.95;;
48789;SDS011;41718;51.980;5.734;2023-04-25T02:29:20;11.48;;;4.25;;
48789;SDS011;41718;51.980;5.734;2023-04-25T02:34:21;8.70;;;3.70;;
48789;SDS011;41718;51.980;5.734;2023-04-25T02:39:23;12.98;;;4.38;;
48789;SDS011;41718;51.980;5.734;2023-04-25T02:44:26;12.10;;;4.07;;
48789;SDS011;41718;51.980;5.734;2023-04-25T02:49:27;11.25;;;4.07;;
48789;SDS011;41718;51.980;5.734;2023-04-25T02:54:29;12.90;;;4.55;;
48789;SDS011;41718;51.980;5.734;2023-04-25T02:59:31;13.73;;;4.68;;
48789;SDS011;41718;51.980;5.734;2023-04-25T03:04:33;14.23;;;4.82;;
48789;SDS011;41718;51.980;5.734;2023-04-25T03:09:34;13.13;;;4.00;;
48789;SDS011;41718;51.980;5.734;2023-04-25T03:14:36;7.57;;;3.58;;
48789;SDS011;41718;51.980;5.734;2023-04-25T03:19:37;13.85;;;4.00;;
48789;SDS011;41718;51.980;5.734;2023-04-25T03:24:39;9.43;;;4.03;;
48789;SDS011;41718;51.980;5.734;2023-04-25T03:29:41;9.95;;;4.55;;
48789;SDS011;41718;51.980;5.734;2023-04-25T03:34:42;11.07;;;5.20;;
48789;SDS011;41718;51.980;5.734;2023-04-25T03:39:44;11.45;;;3.03;;
48789;SDS011;41718;51.980;5.734;2023-04-25T03:44:45;7.90;;;3.22;;
48789;SDS011;41718;51.980;5.734;2023-04-25T03:49:47;9.90;;;3.88;;
48789;SDS011;41718;51.980;5.734;2023-04-25T03:54:50;10.82;;;4.05;;
48789;SDS011;41718;51.980;5.734;2023-04-25T03:59:51;6.47;;;2.47;;
48789;SDS011;41718;51.980;5.734;2023-04-25T04:04:53;12.80;;;3.92;;
48789;SDS011;41718;51.980;5.734;2023-04-25T04:09:55;8.43;;;4.25;;
48789;SDS011;41718;51.980;5.734;2023-04-25T04:14:56;10.43;;;4.10;;
48789;SDS011;41718;51.980;5.734;2023-04-25T04:19:58;15.15;;;4.68;;
48789;SDS011;41718;51.980;5.734;2023-04-25T04:24:59;12.20;;;4.50;;
48789;SDS011;41718;51.980;5.734;2023-04-25T04:30:01;11.15;;;3.80;;
48789;SDS011;41718;51.980;5.734;2023-04-25T04:35:04;8.52;;;3.53;;
48789;SDS011;41718;51.980;5.734;2023-04-25T04:40:08;13.10;;;4.00;;
48789;SDS011;41718;51.980;5.734;2023-04-25T04:45:10;13.55;;;4.25;;
48789;SDS011;41718;51.980;5.734;2023-04-25T04:50:12;12.43;;;4.63;;
48789;SDS011;41718;51.980;5.734;2023-04-25T04:55:14;14.65;;;4.53;;
48789;SDS011;41718;51.980;5.734;2023-04-25T05:00:15;15.30;;;4.88;;
48789;SDS011;41718;51.980;5.734;2023-04-25T05:05:17;9.85;;;3.40;;
48789;SDS011;41718;51.980;5.734;2023-04-25T05:10:19;12.57;;;4.00;;
48789;SDS011;41718;51.980;5.734;2023-04-25T05:15:21;4.78;;;3.55;;
48789;SDS011;41718;51.980;5.734;2023-04-25T05:20:22;10.32;;;4.32;;
48789;SDS011;41718;51.980;5.734;2023-04-25T05:25:24;13.77;;;2.78;;
48789;SDS011;41718;51.980;5.734;2023-04-25T05:30:25;16.30;;;4.30;;
48789;SDS011;41718;51.980;5.734;2023-04-25T05:35:27;9.15;;;3.13;;
48789;SDS011;41718;51.980;5.734;2023-04-25T05:40:28;9.15;;;4.63;;
48789;SDS011;41718;51.980;5.734;2023-04-25T05:45:30;9.18;;;2.75;;
48789;SDS011;41718;51.980;5.734;2023-04-25T05:50:31;8.88;;;3.33;;
48789;SDS011;41718;51.980;5.734;2023-04-25T05:55:33;8.85;;;3.97;;
48789;SDS011;41718;51.980;5.734;2023-04-25T06:00:34;9.00;;;3.67;;
48789;SDS011;41718;51.980;5.734;2023-04-25T06:05:36;11.07;;;2.55;;
48789;SDS011;41718;51.980;5.734;2023-04-25T06:10:38;4.30;;;2.20;;
48789;SDS011;41718;51.980;5.734;2023-04-25T06:15:39;6.20;;;2.40;;
48789;SDS011;41718;51.980;5.734;2023-04-25T06:20:40;5.90;;;2.00;;
48789;SDS011;41718;51.980;5.734;2023-04-25T06:25:42;7.80;;;2.30;;
48789;SDS011;41718;51.980;5.734;2023-04-25T06:30:43;7.93;;;3.22;;
48789;SDS011;41718;51.980;5.734;2023-04-25T06:35:45;11.13;;;2.83;;
48789;SDS011;41718;51.980;5.734;2023-04-25T06:40:46;4.25;;;2.10;;
48789;SDS011;41718;51.980;5.734;2023-04-25T06:45:48;7.82;;;2.58;;
48789;SDS011;41718;51.980;5.734;2023-04-25T06:50:50;13.82;;;3.15;;
48789;SDS011;41718;51.980;5.734;2023-04-25T06:55:51;5.68;;;2.55;;
48789;SDS011;41718;51.980;5.734;2023-04-25T07:00:53;4.80;;;2.28;;
48789;SDS011;41718;51.980;5.734;2023-04-25T07:05:54;7.63;;;2.50;;
48789;SDS011;41718;51.980;5.734;2023-04-25T07:10:56;10.60;;;3.00;;
48789;SDS011;41718;51.980;5.734;2023-04-25T07:15:58;7.60;;;1.65;;
48789;SDS011;41718;51.980;5.734;2023-04-25T07:21:00;7.50;;;2.15;;
48789;SDS011;41718;51.980;5.734;2023-04-25T07:26:02;2.42;;;1.23;;
48789;SDS011;41718;51.980;5.734;2023-04-25T07:31:04;12.82;;;2.85;;
48789;SDS011;41718;51.980;5.734;2023-04-25T07:36:06;9.23;;;2.38;;
48789;SDS011;41718;51.980;5.734;2023-04-25T07:41:08;5.75;;;2.20;;
48789;SDS011;41718;51.980;5.734;2023-04-25T07:46:09;9.57;;;2.72;;
48789;SDS011;41718;51.980;5.734;2023-04-25T07:51:11;5.63;;;2.42;;
48789;SDS011;41718;51.980;5.734;2023-04-25T07:56:12;9.48;;;2.63;;
48789;SDS011;41718;51.980;5.734;2023-04-25T08:01:14;8.43;;;2.65;;
48789;SDS011;41718;51.980;5.734;2023-04-25T08:06:15;11.40;;;3.70;;
48789;SDS011;41718;51.980;5.734;2023-04-25T08:11:17;9.90;;;3.17;;
48789;SDS011;41718;51.980;5.734;2023-04-25T08:16:19;2.97;;;1.10;;
48789;SDS011;41718;51.980;5.734;2023-04-25T08:21:20;6.43;;;1.52;;
48789;SDS011;41718;51.980;5.734;2023-04-25T08:26:22;7.10;;;2.45;;
48789;SDS011;41718;51.980;5.734;2023-04-25T08:31:23;8.85;;;2.85;;
48789;SDS011;41718;51.980;5.734;2023-04-25T08:36:25;4.47;;;1.98;;
48789;SDS011;41718;51.980;5.734;2023-04-25T08:41:40;7.70;;;2.13;;
48789;SDS011;41718;51.980;5.734;2023-04-25T08:46:41;3.42;;;1.55;;
48789;SDS011;41718;51.980;5.734;2023-04-25T08:51:46;5.15;;;2.05;;
48789;SDS011;41718;51.980;5.734;2023-04-25T08:56:48;7.07;;;2.10;;
48789;SDS011;41718;51.980;5.734;2023-04-25T09:01:50;8.05;;;1.73;;
48789;SDS011;41718;51.980;5.734;2023-04-25T09:06:52;5.97;;;1.23;;
48789;SDS011;41718;51.980;5.734;2023-04-25T09:11:54;4.18;;;1.23;;
48789;SDS011;41718;51.980;5.734;2023-04-25T09:21:59;4.20;;;1.23;;
48789;SDS011;41718;51.980;5.734;2023-04-25T09:27:08;1.67;;;0.90;;
48789;SDS011;41718;51.980;5.734;2023-04-25T09:32:21;3.08;;;0.90;;
48789;SDS011;41718;51.980;5.734;2023-04-25T09:37:29;1.95;;;1.23;;
48789;SDS011;41718;51.980;5.734;2023-04-25T09:42:31;4.82;;;1.40;;
48789;SDS011;41718;51.980;5.734;2023-04-25T09:47:36;5.38;;;2.00;;
48789;SDS011;41718;51.980;5.734;2023-04-25T09:52:39;3.28;;;1.20;;
48789;SDS011;41718;51.980;5.734;2023-04-25T09:57:40;4.75;;;1.50;;
48789;SDS011;41718;51.980;5.734;2023-04-25T10:02:46;3.58;;;1.08;;
48789;SDS011;41718;51.980;5.734;2023-04-25T10:07:55;3.22;;;1.08;;
48789;SDS011;41718;51.980;5.734;2023-04-25T10:12:58;5.75;;;2.45;;
48789;SDS011;41718;51.980;5.734;2023-04-25T10:18:01;5.22;;;1.63;;
48789;SDS011;41718;51.980;5.734;2023-04-25T10:23:11;9.75;;;2.20;;
48789;SDS011;41718;51.980;5.734;2023-04-25T10:28:15;5.15;;;1.95;;
48789;SDS011;41718;51.980;5.734;2023-04-25T10:33:18;6.55;;;1.50;;
48789;SDS011;41718;51.980;5.734;2023-04-25T10:38:35;6.22;;;1.10;;
48789;SDS011;41718;51.980;5.734;2023-04-25T10:59:08;5.78;;;1.10;;
48789;SDS011;41718;51.980;5.734;2023-04-25T11:04:29;3.25;;;1.23;;
48789;SDS011;41718;51.980;5.734;2023-04-25T11:09:38;1.55;;;0.80;;
48789;SDS011;41718;51.980;5.734;2023-04-25T11:14:43;2.53;;;0.80;;
48789;SDS011;41718;51.980;5.734;2023-04-25T11:19:47;1.95;;;0.70;;
48789;SDS011;41718;51.980;5.734;2023-04-25T11:24:51;4.25;;;1.20;;
48789;SDS011;41718;51.980;5.734;2023-04-25T11:29:55;3.80;;;1.08;;
48789;SDS011;41718;51.980;5.734;2023-04-25T11:34:58;3.67;;;1.00;;
48789;SDS011;41718;51.980;5.734;2023-04-25T11:40:05;3.80;;;2.17;;
48789;SDS011;41718;51.980;5.734;2023-04-25T11:50:09;4.88;;;1.52;;
48789;SDS011;41718;51.980;5.734;2023-04-25T11:55:15;2.65;;;1.00;;
48789;SDS011;41718;51.980;5.734;2023-04-25T12:00:21;2.83;;;0.93;;
48789;SDS011;41718;51.980;5.734;2023-04-25T12:05:28;2.95;;;1.20;;
48789;SDS011;41718;51.980;5.734;2023-04-25T12:10:38;2.28;;;1.00;;
48789;SDS011;41718;51.980;5.734;2023-04-25T12:16:03;2.35;;;1.40;;
48789;SDS011;41718;51.980;5.734;2023-04-25T12:21:12;2.35;;;1.23;;
48789;SDS011;41718;51.980;5.734;2023-04-25T12:26:17;6.57;;;1.35;;
48789;SDS011;41718;51.980;5.734;2023-04-25T12:31:25;1.10;;;0.77;;
48789;SDS011;41718;51.980;5.734;2023-04-25T12:36:27;5.43;;;1.60;;
48789;SDS011;41718;51.980;5.734;2023-04-25T12:41:32;2.50;;;0.98;;
48789;SDS011;41718;51.980;5.734;2023-04-25T12:46:43;6.70;;;2.42;;
48789;SDS011;41718;51.980;5.734;2023-04-25T12:51:45;6.63;;;1.88;;
48789;SDS011;41718;51.980;5.734;2023-04-25T12:56:53;3.72;;;1.60;;
48789;SDS011;41718;51.980;5.734;2023-04-25T13:01:54;2.95;;;1.00;;
48789;SDS011;41718;51.980;5.734;2023-04-25T13:07:00;2.63;;;1.15;;
48789;SDS011;41718;51.980;5.734;2023-04-25T13:12:05;5.13;;;1.00;;
48789;SDS011;41718;51.980;5.734;2023-04-25T13:17:08;3.72;;;1.60;;
48789;SDS011;41718;51.980;5.734;2023-04-25T13:22:11;3.53;;;1.58;;
48789;SDS011;41718;51.980;5.734;2023-04-25T13:27:13;3.63;;;0.77;;
48789;SDS011;41718;51.980;5.734;2023-04-25T13:32:15;1.25;;;1.00;;
48789;SDS011;41718;51.980;5.734;2023-04-25T13:37:17;1.55;;;0.90;;
48789;SDS011;41718;51.980;5.734;2023-04-25T13:42:23;1.30;;;0.63;;
48789;SDS011;41718;51.980;5.734;2023-04-25T13:47:25;3.25;;;0.98;;
48789;SDS011;41718;51.980;5.734;2023-04-25T13:52:29;1.83;;;0.77;;
48789;SDS011;41718;51.980;5.734;2023-04-25T13:57:31;3.00;;;1.05;;
48789;SDS011;41718;51.980;5.734;2023-04-25T14:02:35;2.30;;;1.02;;
48789;SDS011;41718;51.980;5.734;2023-04-25T14:07:38;2.33;;;1.20;;
48789;SDS011;41718;51.980;5.734;2023-04-25T14:12:42;3.75;;;1.02;;
48789;SDS011;41718;51.980;5.734;2023-04-25T14:17:44;1.63;;;0.80;;
48789;SDS011;41718;51.980;5.734;2023-04-25T14:22:49;5.10;;;1.60;;
48789;SDS011;41718;51.980;5.734;2023-04-25T14:27:51;0.65;;;0.50;;
48789;SDS011;41718;51.980;5.734;2023-04-25T14:32:53;4.68;;;1.20;;
48789;SDS011;41718;51.980;5.734;2023-04-25T14:37:55;8.95;;;1.48;;
48789;SDS011;41718;51.980;5.734;2023-04-25T14:42:58;1.75;;;0.82;;
48789;SDS011;41718;51.980;5.734;2023-04-25T14:48:00;3.60;;;1.67;;
48789;SDS011;41718;51.980;5.734;2023-04-25T14:53:06;1.90;;;1.23;;
48789;SDS011;41718;51.980;5.734;2023-04-25T14:58:07;3.00;;;1.13;;
48789;SDS011;41718;51.980;5.734;2023-04-25T15:03:10;3.15;;;1.40;;
48789;SDS011;41718;51.980;5.734;2023-04-25T15:08:14;7.65;;;1.55;;
48789;SDS011;41718;51.980;5.734;2023-04-25T15:13:17;0.93;;;0.60;;
48789;SDS011;41718;51.980;5.734;2023-04-25T15:18:22;2.70;;;1.40;;
48789;SDS011;41718;51.980;5.734;2023-04-25T15:23:25;4.20;;;1.30;;
48789;SDS011;41718;51.980;5.734;2023-04-25T15:28:30;3.72;;;1.50;;
48789;SDS011;41718;51.980;5.734;2023-04-25T15:33:34;2.85;;;1.33;;
48789;SDS011;41718;51.980;5.734;2023-04-25T15:38:36;3.90;;;1.48;;
48789;SDS011;41718;51.980;5.734;2023-04-25T15:43:38;3.95;;;1.33;;
48789;SDS011;41718;51.980;5.734;2023-04-25T15:48:40;8.02;;;1.92;;
48789;SDS011;41718;51.980;5.734;2023-04-25T15:53:42;3.13;;;1.17;;
48789;SDS011;41718;51.980;5.734;2023-04-25T15:58:43;3.33;;;1.10;;
48789;SDS011;41718;51.980;5.734;2023-04-25T16:03:44;1.45;;;0.98;;
48789;SDS011;41718;51.980;5.734;2023-04-25T16:08:46;3.17;;;1.65;;
48789;SDS011;41718;51.980;5.734;2023-04-25T16:13:48;2.60;;;1.10;;
48789;SDS011;41718;51.980;5.734;2023-04-25T16:18:50;3.03;;;1.52;;
48789;SDS011;41718;51.980;5.734;2023-04-25T16:23:52;3.20;;;1.30;;
48789;SDS011;41718;51.980;5.734;2023-04-25T16:28:53;6.38;;;1.90;;
48789;SDS011;41718;51.980;5.734;2023-04-25T16:33:55;6.22;;;2.15;;
48789;SDS011;41718;51.980;5.734;2023-04-25T16:38:56;6.95;;;2.35;;
48789;SDS011;41718;51.980;5.734;2023-04-25T16:43:59;8.82;;;3.33;;
48789;SDS011;41718;51.980;5.734;2023-04-25T16:49:00;2.15;;;0.98;;
48789;SDS011;41718;51.980;5.734;2023-04-25T16:54:02;6.28;;;1.52;;
48789;SDS011;41718;51.980;5.734;2023-04-25T16:59:03;4.70;;;1.45;;
48789;SDS011;41718;51.980;5.734;2023-04-25T17:04:05;4.35;;;2.13;;
48789;SDS011;41718;51.980;5.734;2023-04-25T17:09:07;1.90;;;1.20;;
48789;SDS011;41718;51.980;5.734;2023-04-25T17:14:10;7.35;;;4.00;;
48789;SDS011;41718;51.980;5.734;2023-04-25T17:19:12;2.65;;;1.90;;
48789;SDS011;41718;51.980;5.734;2023-04-25T17:24:20;2.88;;;1.45;;
48789;SDS011;41718;51.980;5.734;2023-04-25T17:29:22;13.63;;;4.45;;
48789;SDS011;41718;51.980;5.734;2023-04-25T17:34:27;4.25;;;1.90;;
48789;SDS011;41718;51.980;5.734;2023-04-25T17:39:29;6.53;;;2.70;;
48789;SDS011;41718;51.980;5.734;2023-04-25T17:44:30;5.80;;;2.50;;
48789;SDS011;41718;51.980;5.734;2023-04-25T17:49:32;5.35;;;1.85;;
48789;SDS011;41718;51.980;5.734;2023-04-25T17:54:34;4.10;;;1.58;;
48789;SDS011;41718;51.980;5.734;2023-04-25T17:59:35;9.02;;;3.40;;
48789;SDS011;41718;51.980;5.734;2023-04-25T18:04:37;4.25;;;1.80;;
48789;SDS011;41718;51.980;5.734;2023-04-25T18:09:38;2.03;;;1.27;;
48789;SDS011;41718;51.980;5.734;2023-04-25T18:14:40;3.40;;;1.98;;
48789;SDS011;41718;51.980;5.734;2023-04-25T18:19:41;6.05;;;1.77;;
48789;SDS011;41718;51.980;5.734;2023-04-25T18:24:43;6.00;;;1.48;;
48789;SDS011;41718;51.980;5.734;2023-04-25T18:29:47;1.92;;;1.25;;
48789;SDS011;41718;51.980;5.734;2023-04-25T18:34:49;5.80;;;1.65;;
48789;SDS011;41718;51.980;5.734;2023-04-25T18:39:51;7.40;;;2.28;;
48789;SDS011;41718;51.980;5.734;2023-04-25T18:44:54;6.22;;;2.28;;
48789;SDS011;41718;51.980;5.734;2023-04-25T18:49:56;3.78;;;2.20;;
48789;SDS011;41718;51.980;5.734;2023-04-25T18:54:57;7.93;;;2.10;;
48789;SDS011;41718;51.980;5.734;2023-04-25T18:59:59;6.60;;;1.95;;
48789;SDS011;41718;51.980;5.734;2023-04-25T19:05:06;5.72;;;2.22;;
48789;SDS011;41718;51.980;5.734;2023-04-25T19:10:11;3.42;;;2.00;;
48789;SDS011;41718;51.980;5.734;2023-04-25T19:15:12;7.03;;;2.28;;
48789;SDS011;41718;51.980;5.734;2023-04-25T19:20:14;8.88;;;2.72;;
48789;SDS011;41718;51.980;5.734;2023-04-25T19:25:20;4.68;;;2.33;;
48789;SDS011;41718;51.980;5.734;2023-04-25T19:30:26;8.50;;;2.90;;
48789;SDS011;41718;51.980;5.734;2023-04-25T19:35:31;8.40;;;3.53;;
48789;SDS011;41718;51.980;5.734;2023-04-25T19:40:35;6.07;;;3.47;;
48789;SDS011;41718;51.980;5.734;2023-04-25T19:45:37;5.25;;;3.25;;
48789;SDS011;41718;51.980;5.734;2023-04-25T19:50:39;6.90;;;3.15;;
48789;SDS011;41718;51.980;5.734;2023-04-25T19:55:41;6.82;;;3.40;;
48789;SDS011;41718;51.980;5.734;2023-04-25T20:00:44;6.45;;;3.42;;
48789;SDS011;41718;51.980;5.734;2023-04-25T20:05:46;4.60;;;3.08;;
48789;SDS011;41718;51.980;5.734;2023-04-25T20:10:48;6.07;;;3.05;;
48789;SDS011;41718;51.980;5.734;2023-04-25T20:15:49;5.75;;;2.85;;
48789;SDS011;41718;51.980;5.734;2023-04-25T20:20:52;5.93;;;2.88;;
48789;SDS011;41718;51.980;5.734;2023-04-25T20:25:54;11.93;;;3.05;;
48789;SDS011;41718;51.980;5.734;2023-04-25T20:30:56;5.63;;;4.00;;
48789;SDS011;41718;51.980;5.734;2023-04-25T20:36:05;6.57;;;3.30;;
48789;SDS011;41718;51.980;5.734;2023-04-25T20:46:23;16.30;;;4.50;;
48789;SDS011;41718;51.980;5.734;2023-04-25T20:51:25;5.55;;;2.97;;
48789;SDS011;41718;51.980;5.734;2023-04-25T20:56:28;5.00;;;3.10;;
48789;SDS011;41718;51.980;5.734;2023-04-25T21:01:33;10.80;;;3.85;;
48789;SDS011;41718;51.980;5.734;2023-04-25T21:06:36;12.38;;;5.15;;
48789;SDS011;41718;51.980;5.734;2023-04-25T21:11:38;10.20;;;5.65;;
48789;SDS011;41718;51.980;5.734;2023-04-25T21:16:40;11.68;;;5.97;;
48789;SDS011;41718;51.980;5.734;2023-04-25T21:21:42;12.02;;;4.88;;
48789;SDS011;41718;51.980;5.734;2023-04-25T21:26:44;10.13;;;4.90;;
48789;SDS011;41718;51.980;5.734;2023-04-25T21:31:46;8.73;;;3.95;;
48789;SDS011;41718;51.980;5.734;2023-04-25T21:36:49;9.70;;;4.85;;
48789;SDS011;41718;51.980;5.734;2023-04-25T21:41:54;8.73;;;4.18;;
48789;SDS011;41718;51.980;5.734;2023-04-25T21:46:56;7.78;;;4.65;;
48789;SDS011;41718;51.980;5.734;2023-04-25T21:51:57;9.93;;;4.72;;
48789;SDS011;41718;51.980;5.734;2023-04-25T21:56:59;10.88;;;4.35;;
48789;SDS011;41718;51.980;5.734;2023-04-25T22:02:01;6.68;;;3.83;;
48789;SDS011;41718;51.980;5.734;2023-04-25T22:07:04;8.60;;;4.55;;
48789;SDS011;41718;51.980;5.734;2023-04-25T22:12:06;13.27;;;4.88;;
48789;SDS011;41718;51.980;5.734;2023-04-25T22:17:13;7.65;;;4.35;;
48789;SDS011;41718;51.980;5.734;2023-04-25T22:22:15;9.05;;;4.90;;
48789;SDS011;41718;51.980;5.734;2023-04-25T22:27:17;8.05;;;5.00;;
48789;SDS011;41718;51.980;5.734;2023-04-25T22:32:18;12.32;;;4.43;;
48789;SDS011;41718;51.980;5.734;2023-04-25T22:37:20;9.57;;;5.22;;
48789;SDS011;41718;51.980;5.734;2023-04-25T22:42:22;6.60;;;4.18;;
48789;SDS011;41718;51.980;5.734;2023-04-25T22:47:23;10.15;;;4.82;;
48789;SDS011;41718;51.980;5.734;2023-04-25T22:52:25;8.60;;;4.57;;
48789;SDS011;41718;51.980;5.734;2023-04-25T22:57:27;9.95;;;5.40;;
48789;SDS011;41718;51.980;5.734;2023-04-25T23:02:29;8.18;;;4.30;;
48789;SDS011;41718;51.980;5.734;2023-04-25T23:07:30;11.23;;;5.10;;
48789;SDS011;41718;51.980;5.734;2023-04-25T23:12:34;9.82;;;4.63;;
48789;SDS011;41718;51.980;5.734;2023-04-25T23:17:35;7.38;;;4.00;;
48789;SDS011;41718;51.980;5.734;2023-04-25T23:22:37;9.43;;;4.40;;
48789;SDS011;41718;51.980;5.734;2023-04-25T23:27:39;9.80;;;4.70;;
48789;SDS011;41718;51.980;5.734;2023-04-25T23:32:40;7.00;;;4.93;;
48789;SDS011;41718;51.980;5.734;2023-04-25T23:37:42;7.88;;;4.65;;
48789;SDS011;41718;51.980;5.734;2023-04-25T23:42:44;6.97;;;4.32;;
48789;SDS011;41718;51.980;5.734;2023-04-25T23:47:45;9.88;;;4.15;;
48789;SDS011;41718;51.980;5.734;2023-04-25T23:52:47;7.13;;;4.10;;
48789;SDS011;41718;51.980;5.734;2023-04-25T23:57:48;6.57;;;4.57;;
